createdAt,value
2022-08-17T00:02:26.916Z,18.46
2022-08-17T00:05:32.012Z,18.44
2022-08-17T00:08:39.449Z,18.49
2022-08-17T00:11:44.045Z,18.39
2022-08-17T00:15:10.484Z,18.29
2022-08-17T00:18:57.540Z,18.30
2022-08-17T00:22:31.233Z,18.28
2022-08-17T00:25:00.843Z,18.34
2022-08-17T00:28:04.302Z,18.19
2022-08-17T00:31:08.467Z,18.11
2022-08-17T00:34:10.717Z,18.07
2022-08-17T00:37:12.900Z,18.02
2022-08-17T00:40:15.724Z,18.07
2022-08-17T00:43:21.023Z,18.12
2022-08-17T00:46:30.062Z,18.12
2022-08-17T00:49:32.387Z,18.14
2022-08-17T00:52:37.873Z,18.14
2022-08-17T00:55:40.284Z,18.12
2022-08-17T00:58:42.907Z,18.16
2022-08-17T01:01:45.554Z,18.08
2022-08-17T01:04:50.167Z,18.11
2022-08-17T01:07:53.063Z,18.08
2022-08-17T01:11:01.828Z,18.08
2022-08-17T01:14:04.336Z,18.11
2022-08-17T01:17:07.332Z,18.06
2022-08-17T01:20:09.968Z,18.07
2022-08-17T01:23:12.250Z,18.00
2022-08-17T01:26:23.178Z,17.89
2022-08-17T01:29:26.013Z,17.92
2022-08-17T01:32:30.461Z,17.83
2022-08-17T01:35:32.702Z,17.84
2022-08-17T01:38:36.633Z,17.82
2022-08-17T01:41:41.074Z,17.74
2022-08-17T01:44:43.374Z,17.83
2022-08-17T01:47:45.899Z,17.96
2022-08-17T01:50:50.071Z,17.78
2022-08-17T01:53:54.875Z,17.81
2022-08-17T01:56:57.313Z,17.87
2022-08-17T01:59:59.863Z,17.66
2022-08-17T02:03:02.088Z,17.69
2022-08-17T02:06:05.988Z,17.82
2022-08-17T02:09:29.636Z,17.98
2022-08-17T02:12:37.242Z,17.77
2022-08-17T02:15:51.123Z,17.65
2022-08-17T02:18:53.402Z,17.63
2022-08-17T02:21:56.379Z,17.55
2022-08-17T02:25:02.189Z,17.76
2022-08-17T02:28:05.244Z,17.75
2022-08-17T02:31:11.175Z,17.73
2022-08-17T02:34:14.082Z,17.46
2022-08-17T02:37:19.741Z,17.49
2022-08-17T02:40:35.993Z,17.48
2022-08-17T02:43:39.189Z,17.54
2022-08-17T02:46:41.428Z,17.43
2022-08-17T02:49:54.051Z,17.43
2022-08-17T02:53:01.916Z,17.46
2022-08-17T02:56:05.117Z,17.35
2022-08-17T02:59:07.332Z,17.31
2022-08-17T03:02:11.689Z,17.37
2022-08-17T03:05:16.405Z,17.34
2022-08-17T03:08:19.711Z,17.39
2022-08-17T03:11:22.036Z,17.33
2022-08-17T03:14:26.236Z,17.41
2022-08-17T03:17:28.653Z,17.33
2022-08-17T03:20:32.324Z,17.25
2022-08-17T03:23:40.929Z,17.33
2022-08-17T03:26:43.191Z,17.23
2022-08-17T03:29:45.782Z,17.22
2022-08-17T03:32:50.571Z,17.24
2022-08-17T03:35:52.843Z,17.24
2022-08-17T03:38:55.019Z,17.10
2022-08-17T03:42:32.435Z,17.12
2022-08-17T03:45:54.580Z,17.14
2022-08-17T03:49:15.316Z,17.26
2022-08-17T03:52:36.382Z,17.21
2022-08-17T03:55:59.289Z,17.25
2022-08-17T03:59:01.488Z,17.26
2022-08-17T04:02:09.544Z,17.33
2022-08-17T04:05:11.814Z,17.42
2022-08-17T04:08:14.117Z,17.51
2022-08-17T04:11:16.300Z,17.18
2022-08-17T04:14:18.680Z,17.20
2022-08-17T04:17:25.767Z,17.40
2022-08-17T04:20:28.453Z,17.72
2022-08-17T04:23:33.791Z,18.14
2022-08-17T04:26:53.353Z,18.62
2022-08-17T04:29:56.528Z,19.07
2022-08-17T04:33:05.765Z,19.11
2022-08-17T04:36:08.993Z,19.01
2022-08-17T04:39:11.454Z,19.35
2022-08-17T04:42:17.340Z,19.66
2022-08-17T04:45:19.559Z,20.35
2022-08-17T04:48:21.900Z,20.73
2022-08-17T04:51:30.144Z,20.85
2022-08-17T04:54:32.401Z,20.64
2022-08-17T04:57:39.407Z,20.64
2022-08-17T05:00:44.059Z,20.47
2022-08-17T05:03:46.290Z,20.43
2022-08-17T05:06:49.620Z,20.79
2022-08-17T05:09:51.787Z,20.91
2022-08-17T05:13:06.977Z,21.61
2022-08-17T05:16:09.738Z,21.93
2022-08-17T05:19:11.953Z,21.95
2022-08-17T05:22:14.701Z,22.32
2022-08-17T05:25:26.707Z,22.31
2022-08-17T05:28:29.210Z,22.50
2022-08-17T05:31:31.888Z,22.47
2022-08-17T05:34:34.067Z,22.45
2022-08-17T05:37:36.297Z,22.57
2022-08-17T05:40:38.863Z,22.77
2022-08-17T05:43:42.186Z,22.76
2022-08-17T05:46:49.367Z,22.82
2022-08-17T05:49:51.834Z,23.04
2022-08-17T05:53:13.252Z,23.34
2022-08-17T05:56:30.477Z,23.02
2022-08-17T05:59:42.128Z,22.98
2022-08-17T06:02:47.730Z,22.87
2022-08-17T06:06:39.860Z,22.96
2022-08-17T06:10:17.824Z,23.09
2022-08-17T06:13:29.205Z,24.00
2022-08-17T06:16:36.305Z,24.28
2022-08-17T06:19:39.903Z,24.81
2022-08-17T06:22:46.494Z,25.08
2022-08-17T06:25:52.394Z,24.93
2022-08-17T06:28:59.641Z,24.69
2022-08-17T06:32:02.707Z,24.95
2022-08-17T06:35:10.625Z,25.07
2022-08-17T06:38:38.026Z,25.34
2022-08-17T06:42:59.919Z,25.35
2022-08-17T06:45:43.946Z,25.70
2022-08-17T06:49:19.815Z,25.99
2022-08-17T06:52:46.185Z,26.44
2022-08-17T06:56:06.468Z,26.63
2022-08-17T06:59:11.154Z,26.86
2022-08-17T07:02:18.240Z,26.90
2022-08-17T07:05:25.224Z,27.05
2022-08-17T07:08:45.988Z,26.95
2022-08-17T07:12:04.142Z,27.38
2022-08-17T07:15:09.356Z,27.47
2022-08-17T07:18:11.666Z,27.57
2022-08-17T07:21:38.044Z,27.38
2022-08-17T07:24:52.842Z,27.25
2022-08-17T07:27:59.856Z,27.45
2022-08-17T07:31:04.712Z,27.75
2022-08-17T07:34:11.089Z,28.10
2022-08-17T07:37:19.337Z,28.45
2022-08-17T07:40:35.129Z,28.49
2022-08-17T07:43:46.726Z,28.53
2022-08-17T07:47:12.342Z,28.79
2022-08-17T07:50:28.926Z,28.81
2022-08-17T07:53:31.974Z,29.38
2022-08-17T07:56:44.452Z,28.71
2022-08-17T08:00:01.864Z,28.52
2022-08-17T08:03:13.454Z,28.25
2022-08-17T08:06:23.154Z,28.65
2022-08-17T08:09:34.462Z,28.64
2022-08-17T08:12:40.506Z,29.48
2022-08-17T08:15:54.751Z,29.75
2022-08-17T08:18:59.719Z,29.52
2022-08-17T08:22:13.062Z,29.58
2022-08-17T08:25:23.260Z,30.25
2022-08-17T08:28:27.489Z,30.58
2022-08-17T08:31:51.327Z,30.38
2022-08-17T08:35:09.678Z,30.08
2022-08-17T08:38:30.214Z,30.14
2022-08-17T08:41:44.910Z,30.63
2022-08-17T08:45:14.716Z,30.79
2022-08-17T08:48:55.739Z,31.11
2022-08-17T08:52:00.148Z,30.81
2022-08-17T08:55:34.526Z,31.02
2022-08-17T08:58:47.272Z,31.13
2022-08-17T09:01:59.861Z,31.05
2022-08-17T09:05:17.255Z,31.10
2022-08-17T09:08:33.339Z,30.91
2022-08-17T09:12:02.850Z,30.58
2022-08-17T09:15:29.282Z,30.86
2022-08-17T09:19:02.770Z,31.47
2022-08-17T09:22:17.593Z,31.60
2022-08-17T09:25:27.015Z,31.60
2022-08-17T09:28:34.736Z,31.47
2022-08-17T09:31:57.993Z,31.76
2022-08-17T09:35:15.301Z,31.78
2022-08-17T09:38:32.487Z,32.06
2022-08-17T09:42:19.567Z,31.88
2022-08-17T09:45:28.711Z,31.33
2022-08-17T09:48:33.672Z,31.26
2022-08-17T09:51:44.025Z,31.60
2022-08-17T09:54:46.244Z,31.80
2022-08-17T09:58:11.209Z,31.90
2022-08-17T10:01:25.252Z,31.29
2022-08-17T10:04:47.352Z,31.57
2022-08-17T10:08:01.771Z,31.47
2022-08-17T10:11:33.285Z,31.90
2022-08-17T10:14:44.035Z,31.67
2022-08-17T10:18:15.345Z,31.71
2022-08-17T10:21:37.715Z,32.14
2022-08-17T10:25:22.331Z,31.93
2022-08-17T10:28:30.502Z,31.98
2022-08-17T10:31:41.345Z,32.66
2022-08-17T10:34:52.878Z,32.90
2022-08-17T10:37:59.308Z,33.11
2022-08-17T10:41:04.199Z,32.96
2022-08-17T10:44:37.289Z,32.80
2022-08-17T10:48:06.218Z,32.94
2022-08-17T10:51:36.667Z,33.22
2022-08-17T10:54:41.689Z,32.71
2022-08-17T10:57:46.896Z,32.66
2022-08-17T11:00:52.511Z,32.63
2022-08-17T11:03:57.266Z,32.77
2022-08-17T11:07:35.348Z,32.52
2022-08-17T11:10:46.442Z,32.87
2022-08-17T11:14:17.300Z,33.52
2022-08-17T11:17:44.555Z,33.34
2022-08-17T11:21:35.016Z,33.58
2022-08-17T11:24:38.521Z,33.37
2022-08-17T11:27:41.773Z,33.04
2022-08-17T11:30:49.094Z,33.23
2022-08-17T11:34:14.820Z,33.37
2022-08-17T11:37:30.992Z,33.18
2022-08-17T11:41:04.011Z,33.27
2022-08-17T11:44:10.695Z,33.47
2022-08-17T11:48:27.668Z,33.88
2022-08-17T11:51:34.835Z,33.54
2022-08-17T11:54:41.645Z,33.57
2022-08-17T11:57:46.317Z,33.61
2022-08-17T12:01:03.182Z,33.75
2022-08-17T12:04:28.059Z,33.63
2022-08-17T12:07:33.423Z,33.68
2022-08-17T12:10:40.090Z,33.31
2022-08-17T12:13:47.086Z,33.46
2022-08-17T12:17:09.365Z,33.71
2022-08-17T12:20:21.702Z,34.07
2022-08-17T12:23:44.146Z,34.42
2022-08-17T12:27:01.191Z,34.07
2022-08-17T12:30:11.577Z,34.18
2022-08-17T12:33:25.629Z,34.21
2022-08-17T12:36:31.327Z,34.40
2022-08-17T12:39:34.364Z,34.55
2022-08-17T12:42:40.644Z,34.20
2022-08-17T12:45:43.668Z,33.75
2022-08-17T12:48:59.074Z,33.97
2022-08-17T12:52:20.479Z,33.75
2022-08-17T12:55:25.325Z,33.95
2022-08-17T12:58:47.659Z,34.07
2022-08-17T13:01:51.121Z,33.95
2022-08-17T13:04:54.865Z,33.54
2022-08-17T13:07:59.593Z,33.03
2022-08-17T13:11:12.183Z,33.05
2022-08-17T13:14:18.695Z,32.92
2022-08-17T13:17:41.596Z,33.25
2022-08-17T13:20:54.271Z,33.20
2022-08-17T13:24:17.238Z,33.54
2022-08-17T13:27:21.041Z,33.82
2022-08-17T13:30:28.608Z,34.09
2022-08-17T13:33:43.399Z,34.07
2022-08-17T13:36:50.680Z,34.00
2022-08-17T13:40:00.591Z,34.15
2022-08-17T13:43:03.787Z,34.06
2022-08-17T13:46:22.396Z,34.16
2022-08-17T13:49:25.945Z,34.12
2022-08-17T13:52:51.942Z,34.08
2022-08-17T13:55:58.432Z,34.11
2022-08-17T13:59:12.736Z,33.85
2022-08-17T14:02:18.256Z,33.83
2022-08-17T14:05:20.992Z,33.79
2022-08-17T14:08:24.209Z,33.86
2022-08-17T14:11:27.002Z,33.98
2022-08-17T14:14:30.283Z,33.95
2022-08-17T14:17:38.124Z,33.94
2022-08-17T14:20:42.876Z,34.06
2022-08-17T14:23:49.055Z,34.04
2022-08-17T14:26:59.312Z,34.17
2022-08-17T14:30:02.518Z,33.83
2022-08-17T14:33:06.128Z,33.52
2022-08-17T14:36:09.621Z,33.42
2022-08-17T14:39:13.140Z,33.27
2022-08-17T14:42:16.652Z,33.39
2022-08-17T14:45:31.494Z,33.66
2022-08-17T14:48:40.816Z,33.68
2022-08-17T14:51:44.152Z,33.51
2022-08-17T14:54:51.562Z,33.38
2022-08-17T14:57:54.600Z,33.36
2022-08-17T15:00:58.041Z,33.52
2022-08-17T15:04:01.241Z,33.40
2022-08-17T15:07:04.699Z,33.46
2022-08-17T15:10:09.813Z,33.24
2022-08-17T15:13:17.932Z,33.42
2022-08-17T15:16:22.861Z,33.52
2022-08-17T15:19:29.220Z,33.53
2022-08-17T15:22:37.514Z,33.43
2022-08-17T15:25:40.395Z,33.42
2022-08-17T15:28:49.976Z,33.38
2022-08-17T15:32:00.619Z,33.39
2022-08-17T15:35:05.574Z,33.35
2022-08-17T15:38:12.166Z,33.25
2022-08-17T15:41:18.161Z,33.08
2022-08-17T15:44:20.927Z,32.93
2022-08-17T15:47:32.734Z,32.79
2022-08-17T15:50:36.038Z,32.76
2022-08-17T15:53:39.436Z,32.70
2022-08-17T15:56:42.092Z,32.72
2022-08-17T15:59:44.781Z,32.52
2022-08-17T16:03:32.030Z,32.51
2022-08-17T16:06:11.634Z,32.54
2022-08-17T16:09:14.570Z,32.53
2022-08-17T16:12:20.112Z,32.41
2022-08-17T16:15:22.652Z,32.37
2022-08-17T16:18:31.383Z,32.31
2022-08-17T16:21:42.786Z,32.31
2022-08-17T16:24:57.223Z,32.24
2022-08-17T16:28:00.256Z,32.16
2022-08-17T16:31:02.701Z,32.10
2022-08-17T16:34:17.798Z,32.03
2022-08-17T16:37:20.803Z,32.01
2022-08-17T16:40:26.168Z,32.01
2022-08-17T16:43:30.022Z,31.86
2022-08-17T16:46:32.285Z,31.75
2022-08-17T16:49:36.605Z,31.72
2022-08-17T16:52:41.026Z,31.63
2022-08-17T16:55:48.180Z,31.55
2022-08-17T16:58:50.916Z,31.53
2022-08-17T17:01:53.526Z,31.44
2022-08-17T17:05:26.326Z,31.33
2022-08-17T17:08:43.597Z,31.29
2022-08-17T17:11:50.956Z,31.15
2022-08-17T17:14:59.323Z,31.10
2022-08-17T17:18:07.078Z,31.02
2022-08-17T17:21:14.920Z,30.93
2022-08-17T17:24:32.521Z,30.78
2022-08-17T17:27:42.987Z,30.63
2022-08-17T17:30:57.358Z,30.47
2022-08-17T17:34:07.355Z,30.19
2022-08-17T17:37:15.873Z,29.75
2022-08-17T17:40:28.675Z,29.45
2022-08-17T17:43:40.021Z,29.12
2022-08-17T17:46:45.276Z,28.83
2022-08-17T17:49:50.711Z,28.47
2022-08-17T17:53:08.964Z,28.23
2022-08-17T17:56:43.648Z,28.01
2022-08-17T18:00:04.718Z,27.72
2022-08-17T18:03:22.308Z,27.59
2022-08-17T18:06:32.169Z,27.41
2022-08-17T18:09:51.662Z,27.13
2022-08-17T18:13:14.144Z,26.99
2022-08-17T18:16:16.507Z,26.87
2022-08-17T18:19:24.993Z,26.78
2022-08-17T18:22:27.840Z,26.74
2022-08-17T18:25:39.769Z,26.56
2022-08-17T18:28:44.035Z,26.32
2022-08-17T18:31:46.546Z,26.25
2022-08-17T18:34:57.845Z,26.04
2022-08-17T18:38:23.235Z,25.87
2022-08-17T18:41:30.761Z,25.76
2022-08-17T18:44:35.729Z,25.56
2022-08-17T18:47:52.782Z,25.27
2022-08-17T18:50:58.969Z,25.06
2022-08-17T18:54:03.960Z,24.96
2022-08-17T18:57:09.989Z,25.10
2022-08-17T19:00:16.536Z,25.05
2022-08-17T19:03:25.380Z,24.86
2022-08-17T19:06:34.354Z,24.70
2022-08-17T19:09:48.952Z,24.80
2022-08-17T19:13:00.832Z,24.70
2022-08-17T19:16:15.849Z,24.45
2022-08-17T19:19:23.652Z,24.39
2022-08-17T19:22:31.235Z,24.19
2022-08-17T19:25:38.418Z,24.34
2022-08-17T19:29:10.954Z,24.14
2022-08-17T19:32:16.216Z,24.00
2022-08-17T19:35:20.258Z,24.00
2022-08-17T19:38:34.421Z,23.87
2022-08-17T19:42:02.105Z,23.72
2022-08-17T19:45:20.823Z,23.69
2022-08-17T19:48:53.911Z,23.69
2022-08-17T19:52:01.853Z,23.54
2022-08-17T19:55:10.258Z,23.46
2022-08-17T19:58:18.345Z,23.46
2022-08-17T20:01:29.859Z,23.24
2022-08-17T20:04:40.262Z,23.05
2022-08-17T20:07:46.475Z,23.02
2022-08-17T20:11:07.274Z,22.94
2022-08-17T20:14:34.983Z,22.97
2022-08-17T20:17:40.836Z,22.95
2022-08-17T20:20:59.703Z,22.81
2022-08-17T20:24:13.204Z,22.72
2022-08-17T20:27:17.820Z,22.72
2022-08-17T20:30:23.086Z,22.65
2022-08-17T20:33:29.990Z,22.74
2022-08-17T20:36:36.887Z,22.56
2022-08-17T20:39:44.706Z,22.49
2022-08-17T20:42:47.280Z,22.36
2022-08-17T20:46:07.838Z,22.42
2022-08-17T20:49:19.583Z,22.17
2022-08-17T20:52:45.806Z,22.19
2022-08-17T20:55:52.233Z,22.04
2022-08-17T20:58:55.590Z,22.03
2022-08-17T21:02:17.615Z,22.01
2022-08-17T21:05:38.328Z,22.08
2022-08-17T21:08:54.348Z,21.97
2022-08-17T21:12:04.232Z,21.84
2022-08-17T21:15:42.784Z,21.87
2022-08-17T21:19:05.109Z,21.77
2022-08-17T21:22:33.228Z,21.88
2022-08-17T21:26:09.210Z,21.68
2022-08-17T21:29:32.419Z,21.71
2022-08-17T21:32:37.834Z,21.71
2022-08-17T21:35:50.212Z,21.59
2022-08-17T21:39:13.624Z,21.72
2022-08-17T21:42:16.343Z,21.75
2022-08-17T21:45:24.426Z,21.78
2022-08-17T21:48:28.598Z,21.87
2022-08-17T21:51:32.544Z,21.56
2022-08-17T21:54:38.757Z,21.53
2022-08-17T21:57:41.815Z,21.52
2022-08-17T22:01:37.888Z,21.32
2022-08-17T22:04:41.781Z,21.37
2022-08-17T22:07:47.939Z,21.33
2022-08-17T22:10:51.560Z,21.26
2022-08-17T22:14:00.699Z,21.16
2022-08-17T22:17:18.285Z,21.00
2022-08-17T22:20:21.350Z,21.07
2022-08-17T22:23:58.673Z,21.81
2022-08-17T22:27:07.551Z,22.03
2022-08-17T22:30:27.419Z,22.32
2022-08-17T22:33:43.734Z,22.57
2022-08-17T22:36:46.019Z,22.72
2022-08-17T22:39:58.388Z,22.94
2022-08-17T22:43:03.391Z,23.02
2022-08-17T22:46:08.032Z,23.04
2022-08-17T22:49:10.327Z,23.08
2022-08-17T22:52:15.942Z,23.27
2022-08-17T22:55:37.063Z,23.51
2022-08-17T22:59:17.592Z,23.50
2022-08-17T23:02:27.752Z,23.55
2022-08-17T23:05:31.478Z,23.57
2022-08-17T23:08:39.318Z,23.62
2022-08-17T23:11:50.031Z,23.76
2022-08-17T23:14:58.479Z,23.83
2022-08-17T23:18:04.851Z,23.78
2022-08-17T23:21:08.546Z,23.59
2022-08-17T23:24:21.795Z,23.55
2022-08-17T23:27:29.430Z,23.20
2022-08-17T23:30:33.896Z,23.21
2022-08-17T23:33:38.616Z,23.17
2022-08-17T23:36:41.386Z,23.21
2022-08-17T23:39:45.163Z,23.02
2022-08-17T23:42:47.492Z,23.12
2022-08-17T23:45:49.711Z,23.12
2022-08-17T23:48:53.541Z,23.11
2022-08-17T23:51:55.859Z,23.22
2022-08-17T23:54:58.747Z,23.18
2022-08-17T23:58:02.769Z,23.10
